Maysville, Pennsylvania
Current Conditions -  °F | °C
As of 1:53 PM on Monday 20 Oct 2014 (Local Time) from KSEG Reporting Station
Clear Clear  
Wind Chill: 58°   Ceiling: Unl
Heat Index: 58°   Visibility: 10mi
Dew Point: 37°   Wind: 13mph
Humidity: 46%   Direction: 170°S
Pressure: 29.97"   Gusts: 18mph
Location:  40.7855°N, 76.5082°W
Report Text: KSEG 201753Z AUTO 17011G16KT 10SM CLR 14/03 A2997 RMK AO2 SLP149 T01440028 10144 20022 58033
Loading
Personal Weather Stations






























Interactive Weather Map
Tropical Storm Tracking
New forecast layout! Learn more

10-Day Weather Forecast

Advertisements
Track Severe Weather on mobile